createdAt,value
2018-05-12T00:00:04.320Z,67.50
2018-05-12T00:01:05.429Z,67.50
2018-05-12T00:02:06.488Z,67.40
2018-05-12T00:03:07.564Z,67.40
2018-05-12T00:04:08.636Z,67.50
2018-05-12T00:05:10.464Z,67.60
2018-05-12T00:06:11.550Z,67.50
2018-05-12T00:07:12.622Z,67.60
2018-05-12T00:08:13.681Z,67.30
2018-05-12T00:09:15.499Z,67.50
2018-05-12T00:10:16.568Z,67.50
2018-05-12T00:11:18.367Z,67.50
2018-05-12T00:12:19.434Z,67.50
2018-05-12T00:13:20.483Z,67.60
2018-05-12T00:14:21.563Z,67.50
2018-05-12T00:15:22.640Z,67.50
2018-05-12T00:16:23.689Z,67.60
2018-05-12T00:17:24.734Z,67.80
2018-05-12T00:18:25.789Z,67.70
2018-05-12T00:19:26.873Z,67.80
2018-05-12T00:20:28.701Z,67.90
2018-05-12T00:21:29.766Z,67.80
2018-05-12T00:22:30.838Z,67.90
2018-05-12T00:23:31.910Z,67.90
2018-05-12T00:24:32.971Z,67.90
2018-05-12T00:25:34.033Z,67.90
2018-05-12T00:26:35.091Z,68.10
2018-05-12T00:27:36.156Z,68.20
2018-05-12T00:28:37.951Z,68.20
2018-05-12T00:29:39.047Z,68.20
2018-05-12T00:30:40.113Z,68.20
2018-05-12T00:31:41.167Z,68.40
2018-05-12T00:32:42.216Z,68.20
2018-05-12T00:33:43.267Z,68.10
2018-05-12T00:34:44.347Z,68.30
2018-05-12T00:35:45.420Z,68.40
2018-05-12T00:36:46.500Z,68.60
2018-05-12T00:37:47.581Z,68.40
2018-05-12T00:38:49.372Z,68.70
2018-05-12T00:39:50.440Z,68.70
2018-05-12T00:40:51.511Z,68.70
2018-05-12T00:41:52.576Z,68.60
2018-05-12T00:42:53.660Z,68.60
2018-05-12T00:43:54.699Z,68.60
2018-05-12T00:44:56.526Z,68.50
2018-05-12T00:45:57.583Z,68.60
2018-05-12T00:46:58.663Z,68.50
2018-05-12T00:47:59.737Z,68.50
2018-05-12T00:49:00.828Z,68.60
2018-05-12T00:50:01.903Z,68.50
2018-05-12T00:51:02.966Z,68.60
2018-05-12T00:52:04.054Z,68.50
2018-05-12T00:53:05.859Z,68.50
2018-05-12T00:54:06.915Z,68.50
2018-05-12T00:55:07.998Z,68.70
2018-05-12T00:56:09.068Z,68.50
2018-05-12T00:57:10.143Z,68.50
2018-05-12T00:58:11.211Z,68.60
2018-05-12T00:59:12.267Z,68.50
2018-05-12T01:00:13.337Z,68.50
2018-05-12T01:01:14.419Z,68.60
2018-05-12T01:02:15.493Z,68.50
2018-05-12T01:03:16.551Z,68.50
2018-05-12T01:04:17.659Z,68.50
2018-05-12T01:05:19.500Z,69.10
2018-05-12T01:06:20.555Z,68.50
2018-05-12T01:07:21.638Z,68.50
2018-05-12T01:08:22.735Z,68.70
2018-05-12T01:09:23.810Z,68.50
2018-05-12T01:10:24.879Z,68.60
2018-05-12T01:11:25.962Z,68.60
2018-05-12T01:12:27.045Z,68.50
2018-05-12T01:13:28.133Z,68.70
2018-05-12T01:14:29.199Z,68.50
2018-05-12T01:15:31.019Z,68.50
2018-05-12T01:16:32.085Z,68.40
2018-05-12T01:17:33.163Z,68.50
2018-05-12T01:18:34.235Z,68.40
2018-05-12T01:19:36.054Z,68.50
2018-05-12T01:20:37.128Z,68.40
2018-05-12T01:21:38.206Z,68.50
2018-05-12T01:22:39.287Z,68.70
2018-05-12T01:23:41.092Z,68.60
2018-05-12T01:24:42.172Z,68.60
2018-05-12T01:25:43.234Z,68.90
2018-05-12T01:26:44.319Z,68.70
2018-05-12T01:27:45.400Z,68.70
2018-05-12T01:28:46.451Z,68.60
2018-05-12T01:29:47.510Z,68.90
2018-05-12T01:30:48.579Z,69.20
2018-05-12T01:31:49.670Z,69.20
2018-05-12T01:32:50.739Z,69.10
2018-05-12T01:33:51.795Z,69.10
2018-05-12T01:34:52.878Z,69.10
2018-05-12T01:35:53.942Z,69.10
2018-05-12T01:36:54.999Z,69.10
2018-05-12T01:37:56.063Z,69.00
2018-05-12T01:38:57.148Z,68.90
2018-05-12T01:39:58.203Z,68.80
2018-05-12T01:40:59.291Z,68.70
2018-05-12T01:42:00.372Z,68.70
2018-05-12T01:43:01.444Z,68.80
2018-05-12T01:44:02.532Z,68.70
2018-05-12T01:45:03.608Z,68.60
2018-05-12T01:46:04.678Z,68.70
2018-05-12T01:47:05.768Z,68.60
2018-05-12T01:48:06.855Z,68.60
2018-05-12T01:49:07.931Z,68.60
2018-05-12T01:50:08.980Z,68.60
2018-05-12T01:51:10.806Z,68.80
2018-05-12T01:52:11.872Z,68.80
2018-05-12T01:53:12.960Z,68.80
2018-05-12T01:54:14.036Z,68.80
2018-05-12T01:55:15.149Z,69.00
2018-05-12T01:56:16.262Z,69.00
2018-05-12T01:57:17.345Z,69.10
2018-05-12T01:58:18.414Z,69.20
2018-05-12T01:59:19.480Z,69.30
2018-05-12T02:00:21.299Z,69.50
2018-05-12T02:01:22.370Z,69.40
2018-05-12T02:02:24.227Z,69.30
2018-05-12T02:03:25.312Z,69.30
2018-05-12T02:04:26.379Z,69.10
2018-05-12T02:05:28.190Z,69.20
2018-05-12T02:06:29.282Z,69.10
2018-05-12T02:07:30.360Z,69.10
2018-05-12T02:08:31.416Z,69.00
2018-05-12T02:09:33.207Z,69.20
2018-05-12T02:10:34.271Z,69.00
2018-05-12T02:11:35.350Z,69.00
2018-05-12T02:12:36.420Z,69.00
2018-05-12T02:13:37.483Z,69.00
2018-05-12T02:14:38.558Z,68.90
2018-05-12T02:15:39.618Z,68.90
2018-05-12T02:16:40.680Z,68.90
2018-05-12T02:17:41.776Z,69.50
2018-05-12T02:18:42.836Z,68.70
2018-05-12T02:19:43.916Z,68.60
2018-05-12T02:20:44.967Z,69.30
2018-05-12T02:21:46.044Z,68.60
2018-05-12T02:22:47.896Z,68.50
2018-05-12T02:23:48.957Z,68.50
2018-05-12T02:24:50.035Z,68.60
2018-05-12T02:25:51.120Z,68.70
2018-05-12T02:26:52.187Z,68.80
2018-05-12T02:27:53.248Z,68.80
2018-05-12T02:28:54.319Z,68.80
2018-05-12T02:29:55.394Z,68.90
2018-05-12T02:30:56.486Z,68.90
2018-05-12T02:31:57.571Z,68.90
2018-05-12T02:32:58.629Z,69.00
2018-05-12T02:34:00.437Z,69.00
2018-05-12T02:35:01.493Z,68.90
2018-05-12T02:36:02.572Z,68.90
2018-05-12T02:37:03.651Z,68.90
2018-05-12T02:38:04.724Z,69.00
2018-05-12T02:39:05.800Z,68.90
2018-05-12T02:40:06.865Z,69.00
2018-05-12T02:41:07.935Z,68.90
2018-05-12T02:42:09.015Z,68.90
2018-05-12T02:43:10.105Z,69.10
2018-05-12T02:44:11.163Z,69.00
2018-05-12T02:45:12.271Z,69.10
2018-05-12T02:46:14.079Z,69.20
2018-05-12T02:47:15.889Z,69.20
2018-05-12T02:48:16.936Z,69.10
2018-05-12T02:49:18.022Z,69.30
2018-05-12T02:50:19.083Z,69.30
2018-05-12T02:51:20.155Z,69.50
2018-05-12T02:52:21.243Z,69.60
2018-05-12T02:53:22.342Z,69.70
2018-05-12T02:54:23.415Z,69.90
2018-05-12T02:55:24.500Z,70.00
2018-05-12T02:56:25.598Z,70.10
2018-05-12T02:57:26.673Z,70.80
2018-05-12T02:58:27.759Z,70.10
2018-05-12T02:59:28.829Z,70.20
2018-05-12T03:00:30.664Z,70.10
2018-05-12T03:01:31.727Z,70.10
2018-05-12T03:02:32.786Z,70.10
2018-05-12T03:03:33.848Z,70.00
2018-05-12T03:04:34.928Z,70.00
2018-05-12T03:05:35.990Z,69.90
2018-05-12T03:06:37.063Z,70.00
2018-05-12T03:07:38.158Z,69.70
2018-05-12T03:08:39.227Z,69.70
2018-05-12T03:09:40.308Z,69.70
2018-05-12T03:10:41.363Z,69.50
2018-05-12T03:11:42.426Z,69.50
2018-05-12T03:12:43.503Z,69.50
2018-05-12T03:13:44.583Z,69.40
2018-05-12T03:14:45.680Z,69.40
2018-05-12T03:15:46.748Z,69.40
2018-05-12T03:16:48.563Z,69.20
2018-05-12T03:17:49.630Z,69.20
2018-05-12T03:18:50.695Z,69.10
2018-05-12T03:19:51.755Z,69.20
2018-05-12T03:20:52.828Z,69.10
2018-05-12T03:21:53.907Z,69.20
2018-05-12T03:22:55.003Z,69.10
2018-05-12T03:23:56.086Z,69.50
2018-05-12T03:24:57.148Z,69.30
2018-05-12T03:25:58.971Z,69.50
2018-05-12T03:27:00.038Z,69.50
2018-05-12T03:28:01.852Z,69.50
2018-05-12T03:29:02.927Z,69.50
2018-05-12T03:30:04.007Z,69.40
2018-05-12T03:31:05.084Z,69.60
2018-05-12T03:32:06.161Z,69.50
2018-05-12T03:33:07.254Z,69.50
2018-05-12T03:34:08.326Z,69.40
2018-05-12T03:35:09.403Z,69.40
2018-05-12T03:36:11.209Z,69.50
2018-05-12T03:37:12.266Z,69.40
2018-05-12T03:38:13.348Z,69.50
2018-05-12T03:39:14.412Z,69.70
2018-05-12T03:40:15.477Z,69.60
2018-05-12T03:41:16.565Z,69.90
2018-05-12T03:42:17.638Z,69.80
2018-05-12T03:43:19.478Z,69.80
2018-05-12T03:44:20.555Z,69.80
2018-05-12T03:45:21.666Z,69.80
2018-05-12T03:46:23.465Z,69.90
2018-05-12T03:47:24.528Z,69.90
2018-05-12T03:48:25.590Z,69.80
2018-05-12T03:49:26.655Z,69.80
2018-05-12T03:50:27.726Z,69.70
2018-05-12T03:51:28.811Z,69.60
2018-05-12T03:52:29.890Z,69.60
2018-05-12T03:53:30.983Z,69.80
2018-05-12T03:54:32.061Z,69.90
2018-05-12T03:55:33.159Z,70.00
2018-05-12T03:56:34.224Z,69.90
2018-05-12T03:57:35.322Z,70.00
2018-05-12T03:58:36.415Z,69.80
2018-05-12T03:59:37.479Z,69.90
2018-05-12T04:00:38.543Z,70.00
2018-05-12T04:01:39.627Z,70.10
2018-05-12T04:02:40.717Z,70.30
2018-05-12T04:03:41.796Z,70.20
2018-05-12T04:04:55.147Z,70.20
2018-05-12T04:06:09.238Z,70.20
2018-05-12T04:07:22.556Z,70.20
2018-05-12T04:08:37.427Z,69.50
2018-05-12T04:09:50.826Z,70.10
2018-05-12T04:11:04.243Z,70.10
2018-05-12T04:12:17.719Z,70.00
2018-05-12T04:13:18.815Z,70.00
2018-05-12T04:14:19.892Z,70.00
2018-05-12T04:15:20.968Z,69.80
2018-05-12T04:16:22.076Z,70.00
2018-05-12T04:17:23.116Z,70.00
2018-05-12T04:18:24.228Z,69.90
2018-05-12T04:19:25.295Z,69.80
2018-05-12T04:20:26.368Z,69.70
2018-05-12T04:21:27.430Z,69.80
2018-05-12T04:22:28.498Z,70.00
2018-05-12T04:23:29.573Z,70.00
2018-05-12T04:24:30.643Z,70.30
2018-05-12T04:25:32.451Z,70.40
2018-05-12T04:26:33.533Z,70.40
2018-05-12T04:27:34.592Z,70.30
2018-05-12T04:28:35.670Z,70.30
2018-05-12T04:29:36.737Z,70.50
2018-05-12T04:30:37.801Z,70.20
2018-05-12T04:31:38.886Z,70.40
2018-05-12T04:32:39.938Z,70.40
2018-05-12T04:33:40.999Z,70.60
2018-05-12T04:34:42.085Z,70.40
2018-05-12T04:35:43.163Z,70.50
2018-05-12T04:36:44.214Z,70.40
2018-05-12T04:37:45.279Z,70.40
2018-05-12T04:38:46.340Z,70.20
2018-05-12T04:39:48.165Z,70.30
2018-05-12T04:40:49.972Z,70.30
2018-05-12T04:41:51.032Z,70.40
2018-05-12T04:42:52.086Z,70.40
2018-05-12T04:43:53.154Z,70.50
2018-05-12T04:44:54.236Z,71.10
2018-05-12T04:45:55.308Z,70.40
2018-05-12T04:46:56.362Z,70.40
2018-05-12T04:47:57.451Z,70.40
2018-05-12T04:48:58.563Z,70.40
2018-05-12T04:50:00.363Z,70.30
2018-05-12T04:51:01.419Z,70.40
2018-05-12T04:52:02.508Z,70.30
2018-05-12T04:53:03.604Z,70.20
2018-05-12T04:54:04.690Z,70.20
2018-05-12T04:55:06.515Z,70.20
2018-05-12T04:56:07.748Z,70.40
2018-05-12T04:57:09.619Z,70.30
2018-05-12T04:58:10.752Z,70.30
2018-05-12T04:59:11.847Z,70.50
2018-05-12T05:00:12.987Z,70.30
2018-05-12T05:01:14.155Z,70.60
2018-05-12T05:02:15.251Z,70.40
2018-05-12T05:03:16.356Z,70.40
2018-05-12T05:04:17.470Z,70.30
2018-05-12T05:05:18.651Z,70.40
2018-05-12T05:06:19.744Z,70.20
2018-05-12T05:07:20.876Z,70.30
2018-05-12T05:08:21.954Z,70.50
2018-05-12T05:09:23.030Z,69.90
2018-05-12T05:10:24.111Z,70.20
2018-05-12T05:11:25.916Z,70.40
2018-05-12T05:12:27.004Z,70.50
2018-05-12T05:13:28.091Z,70.50
2018-05-12T05:14:29.159Z,70.90
2018-05-12T05:15:30.235Z,70.90
2018-05-12T05:16:32.038Z,70.90
2018-05-12T05:17:33.833Z,71.10
2018-05-12T05:18:34.904Z,71.00
2018-05-12T05:19:35.984Z,70.80
2018-05-12T05:20:37.808Z,70.80
2018-05-12T05:21:38.880Z,70.80
2018-05-12T05:22:40.684Z,70.90
2018-05-12T05:23:41.779Z,71.10
2018-05-12T05:24:42.858Z,70.90
2018-05-12T05:25:43.939Z,70.80
2018-05-12T05:26:45.019Z,71.10
2018-05-12T05:27:46.087Z,70.60
2018-05-12T05:28:47.133Z,70.50
2018-05-12T05:29:48.211Z,70.60
2018-05-12T05:30:49.294Z,70.70
2018-05-12T05:31:50.361Z,70.60
2018-05-12T05:32:51.436Z,70.90
2018-05-12T05:33:52.519Z,70.90
2018-05-12T05:34:53.586Z,70.90
2018-05-12T05:35:54.646Z,70.80
2018-05-12T05:36:55.722Z,70.90
2018-05-12T05:37:56.787Z,70.90
2018-05-12T05:38:57.886Z,70.80
2018-05-12T05:39:59.699Z,70.70
2018-05-12T05:41:00.751Z,70.60
2018-05-12T05:42:01.811Z,70.40
2018-05-12T05:43:02.928Z,70.20
2018-05-12T05:44:04.760Z,69.90
2018-05-12T05:45:05.818Z,69.80
2018-05-12T05:46:06.878Z,69.40
2018-05-12T05:47:07.950Z,69.30
2018-05-12T05:48:09.022Z,69.00
2018-05-12T05:49:10.832Z,68.40
2018-05-12T05:50:11.962Z,68.40
2018-05-12T05:51:13.024Z,68.10
2018-05-12T05:52:14.826Z,67.60
2018-05-12T05:53:15.891Z,67.60
2018-05-12T05:54:16.958Z,67.40
2018-05-12T05:55:18.025Z,67.10
2018-05-12T05:56:19.120Z,67.00
2018-05-12T05:57:20.204Z,66.60
2018-05-12T05:58:21.276Z,66.50
2018-05-12T05:59:22.351Z,66.90
2018-05-12T06:00:23.514Z,66.00
2018-05-12T06:01:24.610Z,65.80
2018-05-12T06:02:25.684Z,66.00
2018-05-12T06:03:26.747Z,65.80
2018-05-12T06:04:27.827Z,65.60
2018-05-12T06:05:28.905Z,65.30
2018-05-12T06:06:29.983Z,64.90
2018-05-12T06:07:31.050Z,65.20
2018-05-12T06:08:32.111Z,65.00
2018-05-12T06:09:33.191Z,65.00
2018-05-12T06:10:34.270Z,65.00
2018-05-12T06:11:35.387Z,64.40
2018-05-12T06:12:37.188Z,63.90
2018-05-12T06:13:38.259Z,63.70
2018-05-12T06:14:40.175Z,64.20
2018-05-12T06:15:41.249Z,63.80
2018-05-12T06:16:42.368Z,63.70
2018-05-12T06:17:43.486Z,63.20
2018-05-12T06:18:44.597Z,63.50
2018-05-12T06:19:45.695Z,62.80
2018-05-12T06:20:46.831Z,63.00
2018-05-12T06:21:47.931Z,63.50
2018-05-12T06:22:49.070Z,63.60
2018-05-12T06:23:51.832Z,64.00
2018-05-12T06:24:52.957Z,63.90
2018-05-12T06:25:54.047Z,64.10
2018-05-12T06:26:55.118Z,64.30
2018-05-12T06:27:56.197Z,64.30
2018-05-12T06:28:57.317Z,64.40
2018-05-12T06:29:59.131Z,64.70
2018-05-12T06:31:00.224Z,64.70
2018-05-12T06:32:02.047Z,64.80
2018-05-12T06:33:03.893Z,65.00
2018-05-12T06:34:05.697Z,64.90
2018-05-12T06:35:06.763Z,64.90
2018-05-12T06:36:08.020Z,64.90
2018-05-12T06:37:09.155Z,65.00
2018-05-12T06:38:10.232Z,65.10
2018-05-12T06:39:11.315Z,65.10
2018-05-12T06:40:13.120Z,65.40
2018-05-12T06:41:14.199Z,65.40
2018-05-12T06:42:15.283Z,65.40
2018-05-12T06:43:16.396Z,65.50
2018-05-12T06:44:17.486Z,65.50
2018-05-12T06:45:19.515Z,65.50
2018-05-12T06:46:20.684Z,65.60
2018-05-12T06:47:22.495Z,65.60
2018-05-12T06:48:23.569Z,65.60
2018-05-12T06:49:25.375Z,65.40
2018-05-12T06:50:26.472Z,65.40
2018-05-12T06:51:27.567Z,65.40
2018-05-12T06:52:29.639Z,65.70
2018-05-12T06:53:31.455Z,65.10
2018-05-12T06:54:32.538Z,65.10
2018-05-12T06:55:33.599Z,65.20
2018-05-12T06:56:34.679Z,65.00
2018-05-12T06:57:36.480Z,65.20
2018-05-12T06:58:37.575Z,65.20
2018-05-12T06:59:38.639Z,65.10
2018-05-12T07:00:39.688Z,65.10
2018-05-12T07:01:40.798Z,65.20
2018-05-12T07:02:41.853Z,65.10
2018-05-12T07:03:42.911Z,65.30
2018-05-12T07:04:43.975Z,65.20
2018-05-12T07:05:45.038Z,65.20
2018-05-12T07:06:46.116Z,65.30
2018-05-12T07:07:47.920Z,64.80
2018-05-12T07:08:48.999Z,64.80
2018-05-12T07:09:50.818Z,64.50
2018-05-12T07:10:51.881Z,64.50
2018-05-12T07:11:53.695Z,64.20
2018-05-12T07:12:54.756Z,64.10
2018-05-12T07:13:55.839Z,64.10
2018-05-12T07:14:56.907Z,64.10
2018-05-12T07:15:57.991Z,64.00
2018-05-12T07:16:59.071Z,64.00
2018-05-12T07:18:00.123Z,63.80
2018-05-12T07:19:01.950Z,63.50
2018-05-12T07:20:03.051Z,63.50
2018-05-12T07:21:04.131Z,63.30
2018-05-12T07:22:05.978Z,63.90
2018-05-12T07:23:07.044Z,63.90
2018-05-12T07:24:08.207Z,64.00
2018-05-12T07:25:09.195Z,63.90
2018-05-12T07:26:10.271Z,64.00
2018-05-12T07:27:11.359Z,63.90
2018-05-12T07:28:12.443Z,63.60
2018-05-12T07:29:13.507Z,63.30
2018-05-12T07:30:14.579Z,63.00
2018-05-12T07:31:15.646Z,63.20
2018-05-12T07:32:16.768Z,63.50
2018-05-12T07:33:17.819Z,63.30
2018-05-12T07:34:18.888Z,63.30
2018-05-12T07:35:19.938Z,62.80
2018-05-12T07:36:21.067Z,62.80
2018-05-12T07:37:22.131Z,62.80
2018-05-12T07:38:23.196Z,62.80
2018-05-12T07:40:16.893Z,62.40
2018-05-12T07:41:18.012Z,62.20
2018-05-12T07:42:19.132Z,61.90
2018-05-12T07:43:20.949Z,62.00
2018-05-12T07:44:22.031Z,62.00
2018-05-12T07:45:23.102Z,62.00
2018-05-12T07:46:24.191Z,61.80
2018-05-12T07:47:25.995Z,61.20
2018-05-12T07:48:27.069Z,61.20
2018-05-12T07:49:28.863Z,61.70
2018-05-12T07:50:29.918Z,61.60
2018-05-12T07:51:31.808Z,60.60
2018-05-12T07:52:32.868Z,61.20
2018-05-12T07:53:33.937Z,60.90
2018-05-12T07:54:35.783Z,60.80
2018-05-12T07:55:36.839Z,60.70
2018-05-12T07:56:38.646Z,60.70
2018-05-12T07:57:39.698Z,60.80
2018-05-12T07:58:40.775Z,60.80
2018-05-12T07:59:41.843Z,60.70
2018-05-12T08:00:42.927Z,60.60
2018-05-12T08:01:44.024Z,60.20
2018-05-12T08:02:45.128Z,60.00
2018-05-12T08:03:46.222Z,59.50
2018-05-12T08:04:48.027Z,59.80
2018-05-12T08:05:49.087Z,59.80
2018-05-12T08:06:50.903Z,59.90
2018-05-12T08:07:51.988Z,59.90
2018-05-12T08:08:53.056Z,59.00
2018-05-12T08:09:54.107Z,58.80
2018-05-12T08:10:55.180Z,58.80
2018-05-12T08:11:57.024Z,58.40
2018-05-12T08:12:58.139Z,58.50
2018-05-12T08:13:59.199Z,58.50
2018-05-12T08:15:00.279Z,58.50
2018-05-12T08:16:01.378Z,58.50
2018-05-12T08:17:02.475Z,58.60
2018-05-12T08:18:03.871Z,59.30
2018-05-12T08:19:05.034Z,58.50
2018-05-12T08:20:06.086Z,58.30
2018-05-12T08:21:07.163Z,58.50
2018-05-12T08:22:08.221Z,58.40
2018-05-12T08:23:09.305Z,58.00
2018-05-12T08:24:10.372Z,57.50
2018-05-12T08:25:11.445Z,58.10
2018-05-12T08:26:13.282Z,58.10
2018-05-12T08:27:14.352Z,58.10
2018-05-12T08:28:15.430Z,57.70
2018-05-12T08:29:16.499Z,57.70
2018-05-12T08:30:17.561Z,57.60
2018-05-12T08:31:18.617Z,57.60
2018-05-12T08:32:19.686Z,57.20
2018-05-12T08:33:20.791Z,57.20
2018-05-12T08:34:21.923Z,56.80
2018-05-12T08:35:23.088Z,58.00
2018-05-12T08:36:24.349Z,57.20
2018-05-12T08:37:25.517Z,56.90
2018-05-12T08:38:26.615Z,57.00
2018-05-12T08:39:27.748Z,57.10
2018-05-12T08:40:29.195Z,57.10
2018-05-12T08:41:30.251Z,57.10
2018-05-12T08:42:31.465Z,57.60
2018-05-12T08:43:33.704Z,57.60
2018-05-12T08:44:34.849Z,57.80
2018-05-12T08:45:36.227Z,58.10
2018-05-12T08:46:37.443Z,58.10
2018-05-12T08:47:38.499Z,58.50
2018-05-12T08:48:39.564Z,58.70
2018-05-12T08:49:40.625Z,58.20
2018-05-12T08:50:41.702Z,57.60
2018-05-12T08:51:42.785Z,57.20
2018-05-12T08:52:43.863Z,57.40
2018-05-12T08:53:44.948Z,57.40
2018-05-12T08:54:46.001Z,57.20
2018-05-12T08:55:47.062Z,57.40
2018-05-12T08:56:48.140Z,57.50
2018-05-12T08:57:49.207Z,57.20
2018-05-12T08:58:50.286Z,57.00
2018-05-12T08:59:52.099Z,57.10
2018-05-12T09:00:53.253Z,57.10
2018-05-12T09:01:54.424Z,56.90
2018-05-12T09:02:56.505Z,56.90
2018-05-12T09:03:57.566Z,56.70
2018-05-12T09:04:58.855Z,56.80
2018-05-12T09:05:59.998Z,56.40
2018-05-12T09:07:01.173Z,56.10
2018-05-12T09:08:02.315Z,56.20
2018-05-12T09:09:03.392Z,55.90
2018-05-12T09:10:04.626Z,56.70
2018-05-12T09:11:05.988Z,56.20
2018-05-12T09:12:07.047Z,56.40
2018-05-12T09:13:08.774Z,56.10
2018-05-12T09:14:09.982Z,56.00
2018-05-12T09:15:18.100Z,56.20
2018-05-12T09:16:19.259Z,55.80
2018-05-12T09:17:21.164Z,56.10
2018-05-12T09:18:22.452Z,55.80
2018-05-12T09:19:23.841Z,55.50
2018-05-12T09:20:25.931Z,54.90
2018-05-12T09:21:27.058Z,55.60
2018-05-12T09:22:28.349Z,55.70
2018-05-12T09:23:29.637Z,55.50
2018-05-12T09:24:31.471Z,56.10
2018-05-12T09:25:33.436Z,55.50
2018-05-12T09:26:34.483Z,55.00
2018-05-12T09:27:35.804Z,55.10
2018-05-12T09:28:37.083Z,54.70
2018-05-12T09:29:38.212Z,54.50
2018-05-12T09:30:39.385Z,54.20
2018-05-12T09:31:40.507Z,54.40
2018-05-12T09:32:41.590Z,54.50
2018-05-12T09:33:44.249Z,54.60
2018-05-12T09:34:45.471Z,54.20
2018-05-12T09:35:46.741Z,54.50
2018-05-12T09:36:47.836Z,54.20
2018-05-12T09:37:49.076Z,54.20
2018-05-12T09:38:51.075Z,54.00
2018-05-12T09:39:52.190Z,53.00
2018-05-12T09:40:53.341Z,52.70
2018-05-12T09:41:54.493Z,53.00
2018-05-12T09:42:55.714Z,53.20
2018-05-12T09:43:56.868Z,53.40
2018-05-12T09:44:58.835Z,53.20
2018-05-12T09:45:59.926Z,53.30
2018-05-12T09:47:00.971Z,52.90
2018-05-12T09:48:02.811Z,53.20
2018-05-12T09:49:04.619Z,53.50
2018-05-12T09:50:05.715Z,53.50
2018-05-12T09:51:06.794Z,53.00
2018-05-12T09:52:07.883Z,53.10
2018-05-12T09:53:08.954Z,53.50
2018-05-12T09:54:10.024Z,52.70
2018-05-12T09:55:11.157Z,52.20
2018-05-12T09:56:12.255Z,52.20
2018-05-12T09:57:13.323Z,52.20
2018-05-12T09:58:14.424Z,52.60
2018-05-12T09:59:15.499Z,52.90
2018-05-12T10:00:16.601Z,53.10
2018-05-12T10:01:18.436Z,52.60
2018-05-12T10:02:19.491Z,52.50
2018-05-12T10:03:20.569Z,52.60
2018-05-12T10:04:21.647Z,53.50
2018-05-12T10:05:23.467Z,53.00
2018-05-12T10:06:24.547Z,52.90
2018-05-12T10:07:25.630Z,52.60
2018-05-12T10:08:26.710Z,52.50
2018-05-12T10:09:28.540Z,51.70
2018-05-12T10:10:29.606Z,51.60
2018-05-12T10:11:30.675Z,52.10
2018-05-12T10:12:31.735Z,51.60
2018-05-12T10:13:32.835Z,51.40
2018-05-12T10:14:33.918Z,51.50
2018-05-12T10:15:35.827Z,51.20
2018-05-12T10:16:36.815Z,51.20
2018-05-12T10:17:37.887Z,51.00
2018-05-12T10:18:38.947Z,50.70
2018-05-12T10:19:40.019Z,50.40
2018-05-12T10:20:41.107Z,51.00
2018-05-12T10:21:42.178Z,50.30
2018-05-12T10:22:43.275Z,50.50
2018-05-12T10:23:44.336Z,50.90
2018-05-12T10:24:45.418Z,50.70
2018-05-12T10:25:46.537Z,51.10
2018-05-12T10:26:47.608Z,51.40
2018-05-12T10:27:48.686Z,50.90
2018-05-12T10:28:49.752Z,51.00
2018-05-12T10:29:50.827Z,51.60
2018-05-12T10:30:52.618Z,50.10
2018-05-12T10:31:53.687Z,50.00
2018-05-12T10:32:54.746Z,50.60
2018-05-12T10:33:56.568Z,51.20
2018-05-12T10:34:57.631Z,51.10
2018-05-12T10:35:58.690Z,50.90
2018-05-12T10:36:59.759Z,50.60
2018-05-12T10:38:00.833Z,50.60
2018-05-12T10:39:01.958Z,50.20
2018-05-12T10:40:03.047Z,49.90
2018-05-12T10:41:04.127Z,50.00
2018-05-12T10:42:05.183Z,50.00
2018-05-12T10:43:06.259Z,49.70
2018-05-12T10:44:07.326Z,50.20
2018-05-12T10:45:08.387Z,49.80
2018-05-12T10:46:09.437Z,47.80
2018-05-12T10:47:10.508Z,47.60
2018-05-12T10:48:11.615Z,47.80
2018-05-12T10:49:13.415Z,46.60
2018-05-12T10:50:14.493Z,46.50
2018-05-12T10:51:15.541Z,46.10
2018-05-12T10:52:17.338Z,46.50
2018-05-12T10:53:18.419Z,46.50
2018-05-12T10:54:19.643Z,46.20
2018-05-12T10:55:20.893Z,46.20
2018-05-12T10:56:22.777Z,45.50
2018-05-12T10:57:23.991Z,45.40
2018-05-12T10:58:25.208Z,46.00
2018-05-12T10:59:26.334Z,46.30
2018-05-12T11:00:27.412Z,46.80
2018-05-12T11:01:28.597Z,46.80
2018-05-12T11:02:32.312Z,47.30
2018-05-12T11:03:34.669Z,47.50
2018-05-12T11:04:35.989Z,47.40
2018-05-12T11:05:37.987Z,47.00
2018-05-12T11:06:39.253Z,47.00
2018-05-12T11:07:40.495Z,47.10
2018-05-12T11:08:41.582Z,47.00
2018-05-12T11:09:42.773Z,47.10
2018-05-12T11:10:43.983Z,47.20
2018-05-12T11:11:45.684Z,47.10
2018-05-12T11:12:46.844Z,46.90
2018-05-12T11:13:48.164Z,46.20
2018-05-12T11:14:50.114Z,46.10
2018-05-12T11:15:52.126Z,46.40
2018-05-12T11:16:53.306Z,46.40
2018-05-12T11:17:54.433Z,45.50
2018-05-12T11:18:55.499Z,45.00
2018-05-12T11:19:56.596Z,45.00
2018-05-12T11:20:57.693Z,45.10
2018-05-12T11:21:58.884Z,44.50
2018-05-12T11:22:59.848Z,44.60
2018-05-12T11:24:00.938Z,44.30
2018-05-12T11:25:02.783Z,44.10
2018-05-12T11:26:03.851Z,44.00
2018-05-12T11:27:04.915Z,44.60
2018-05-12T11:28:05.975Z,44.60
2018-05-12T11:29:07.089Z,44.70
2018-05-12T11:30:08.163Z,44.20
2018-05-12T11:31:09.264Z,44.90
2018-05-12T11:32:10.423Z,44.80
2018-05-12T11:33:11.436Z,44.80
2018-05-12T11:34:13.246Z,44.90
2018-05-12T11:35:14.301Z,44.90
2018-05-12T11:36:15.372Z,44.50
2018-05-12T11:37:16.452Z,44.40
2018-05-12T11:38:17.514Z,43.40
2018-05-12T11:39:18.579Z,43.30
2018-05-12T11:40:19.634Z,44.00
2018-05-12T11:41:20.693Z,43.60
2018-05-12T11:42:21.754Z,42.70
2018-05-12T11:43:22.806Z,42.00
2018-05-12T11:44:23.907Z,42.20
2018-05-12T11:45:25.728Z,41.80
2018-05-12T11:46:27.556Z,41.10
2018-05-12T11:47:28.616Z,41.00
2018-05-12T11:48:29.663Z,40.90
2018-05-12T11:49:31.471Z,39.70
2018-05-12T11:50:32.567Z,40.10
2018-05-12T11:51:33.638Z,40.40
2018-05-12T11:52:34.713Z,40.40
2018-05-12T11:53:35.767Z,40.40
2018-05-12T11:54:36.828Z,40.20
2018-05-12T11:55:37.906Z,39.90
2018-05-12T11:56:39.713Z,39.50
2018-05-12T11:57:40.795Z,39.40
2018-05-12T11:58:42.574Z,39.80
2018-05-12T11:59:43.631Z,39.70
2018-05-12T12:00:44.709Z,39.20
2018-05-12T12:01:46.514Z,39.70
2018-05-12T12:02:48.358Z,39.40
2018-05-12T12:03:49.505Z,39.30
2018-05-12T12:04:50.515Z,38.90
2018-05-12T12:05:51.599Z,38.80
2018-05-12T12:06:53.414Z,38.50
2018-05-12T12:07:54.487Z,38.40
2018-05-12T12:08:56.274Z,38.20
2018-05-12T12:09:57.331Z,38.00
2018-05-12T12:10:58.446Z,38.20
2018-05-12T12:11:59.517Z,38.70
2018-05-12T12:13:00.585Z,37.40
2018-05-12T12:14:01.656Z,38.40
2018-05-12T12:15:02.720Z,38.70
2018-05-12T12:16:03.790Z,38.30
2018-05-12T12:17:04.876Z,39.00
2018-05-12T12:18:05.951Z,39.00
2018-05-12T12:19:06.999Z,39.20
2018-05-12T12:20:08.088Z,38.90
2018-05-12T12:21:09.179Z,39.10
2018-05-12T12:22:10.297Z,39.00
2018-05-12T12:23:11.386Z,39.30
2018-05-12T12:24:12.449Z,39.80
2018-05-12T12:25:13.520Z,38.40
2018-05-12T12:26:14.589Z,39.20
2018-05-12T12:27:15.658Z,39.20
2018-05-12T12:28:16.739Z,39.30
2018-05-12T12:29:17.827Z,39.30
2018-05-12T12:30:18.887Z,38.70
2018-05-12T12:31:19.957Z,38.80
2018-05-12T12:32:21.071Z,39.60
2018-05-12T12:33:22.200Z,37.70
2018-05-12T12:34:23.199Z,37.10
2018-05-12T12:35:24.272Z,37.00
2018-05-12T12:36:25.351Z,37.00
2018-05-12T12:37:26.439Z,37.80
2018-05-12T12:38:27.507Z,37.50
2018-05-12T12:39:28.563Z,37.10
2018-05-12T12:40:29.631Z,37.20
2018-05-12T12:41:31.458Z,36.20
2018-05-12T12:42:32.535Z,36.10
2018-05-12T12:43:33.611Z,36.30
2018-05-12T12:44:34.687Z,36.10
2018-05-12T12:45:35.753Z,36.30
2018-05-12T12:46:36.848Z,36.40
2018-05-12T12:47:37.918Z,36.60
2018-05-12T12:48:39.000Z,35.70
2018-05-12T12:49:40.800Z,36.30
2018-05-12T12:50:41.871Z,36.10
2018-05-12T12:51:43.700Z,35.30
2018-05-12T12:52:44.766Z,35.20
2018-05-12T12:53:45.858Z,34.10
2018-05-12T12:54:46.944Z,34.20
2018-05-12T12:55:48.044Z,34.20
2018-05-12T12:56:49.120Z,34.70
2018-05-12T12:57:50.184Z,34.80
2018-05-12T12:58:51.268Z,34.90
2018-05-12T12:59:52.356Z,35.00
2018-05-12T13:00:53.442Z,34.90
2018-05-12T13:01:54.511Z,34.40
2018-05-12T13:02:55.580Z,34.60
2018-05-12T13:03:56.630Z,34.60
2018-05-12T13:04:58.435Z,34.00
2018-05-12T13:05:59.519Z,33.90
2018-05-12T13:07:00.579Z,32.00
2018-05-12T13:08:01.647Z,32.40
2018-05-12T13:09:04.481Z,32.30
2018-05-12T13:10:05.547Z,32.30